sensor_id;sensor_type;location;lat;lon;timestamp;temperature;humidity
24426;DHT22;12611;44.446;26.000;2023-05-15T00:01:44;17.50;62.50
24426;DHT22;12611;44.446;26.000;2023-05-15T00:04:12;17.50;62.20
24426;DHT22;12611;44.446;26.000;2023-05-15T00:06:40;17.50;62.30
24426;DHT22;12611;44.446;26.000;2023-05-15T00:09:08;17.40;62.20
24426;DHT22;12611;44.446;26.000;2023-05-15T00:11:39;17.50;62.60
24426;DHT22;12611;44.446;26.000;2023-05-15T00:14:07;17.40;63.60
24426;DHT22;12611;44.446;26.000;2023-05-15T00:16:35;17.40;64.40
24426;DHT22;12611;44.446;26.000;2023-05-15T00:19:03;17.30;64.90
24426;DHT22;12611;44.446;26.000;2023-05-15T00:21:32;17.30;65.40
24426;DHT22;12611;44.446;26.000;2023-05-15T00:24:00;17.30;65.50
24426;DHT22;12611;44.446;26.000;2023-05-15T00:26:29;17.20;65.40
24426;DHT22;12611;44.446;26.000;2023-05-15T00:28:58;17.20;65.70
24426;DHT22;12611;44.446;26.000;2023-05-15T00:31:27;17.10;65.60
24426;DHT22;12611;44.446;26.000;2023-05-15T00:33:56;17.10;67.10
24426;DHT22;12611;44.446;26.000;2023-05-15T00:36:25;17.10;66.60
24426;DHT22;12611;44.446;26.000;2023-05-15T00:38:53;17.00;66.30
24426;DHT22;12611;44.446;26.000;2023-05-15T00:41:22;17.00;67.40
24426;DHT22;12611;44.446;26.000;2023-05-15T00:43:51;17.00;66.50
24426;DHT22;12611;44.446;26.000;2023-05-15T00:46:22;16.90;66.60
24426;DHT22;12611;44.446;26.000;2023-05-15T00:48:51;16.90;66.70
24426;DHT22;12611;44.446;26.000;2023-05-15T00:51:20;16.90;67.00
24426;DHT22;12611;44.446;26.000;2023-05-15T00:53:49;16.90;66.80
24426;DHT22;12611;44.446;26.000;2023-05-15T00:56:19;16.80;67.40
24426;DHT22;12611;44.446;26.000;2023-05-15T00:58:48;16.90;66.60
24426;DHT22;12611;44.446;26.000;2023-05-15T01:01:18;16.90;66.30
24426;DHT22;12611;44.446;26.000;2023-05-15T01:03:48;16.80;66.80
24426;DHT22;12611;44.446;26.000;2023-05-15T01:06:16;16.90;66.30
24426;DHT22;12611;44.446;26.000;2023-05-15T01:08:45;16.90;66.30
24426;DHT22;12611;44.446;26.000;2023-05-15T01:11:15;16.90;66.30
24426;DHT22;12611;44.446;26.000;2023-05-15T01:13:44;16.90;66.40
24426;DHT22;12611;44.446;26.000;2023-05-15T01:16:12;16.80;66.70
24426;DHT22;12611;44.446;26.000;2023-05-15T01:18:40;16.80;67.10
24426;DHT22;12611;44.446;26.000;2023-05-15T01:22:09;16.80;67.20
24426;DHT22;12611;44.446;26.000;2023-05-15T01:24:56;16.80;67.60
24426;DHT22;12611;44.446;26.000;2023-05-15T01:27:34;16.70;68.10
24426;DHT22;12611;44.446;26.000;2023-05-15T01:30:07;16.60;68.40
24426;DHT22;12611;44.446;26.000;2023-05-15T01:32:43;16.60;68.40
24426;DHT22;12611;44.446;26.000;2023-05-15T01:35:19;16.50;68.90
24426;DHT22;12611;44.446;26.000;2023-05-15T01:37:55;16.40;69.10
24426;DHT22;12611;44.446;26.000;2023-05-15T01:40:27;16.40;69.40
24426;DHT22;12611;44.446;26.000;2023-05-15T01:43:08;16.30;69.30
24426;DHT22;12611;44.446;26.000;2023-05-15T01:45:40;16.30;69.60
24426;DHT22;12611;44.446;26.000;2023-05-15T01:48:11;16.20;69.70
24426;DHT22;12611;44.446;26.000;2023-05-15T01:50:42;16.20;69.70
24426;DHT22;12611;44.446;26.000;2023-05-15T01:53:11;16.10;70.20
24426;DHT22;12611;44.446;26.000;2023-05-15T01:55:41;16.00;70.40
24426;DHT22;12611;44.446;26.000;2023-05-15T01:58:12;15.90;70.70
24426;DHT22;12611;44.446;26.000;2023-05-15T02:00:42;15.90;70.90
24426;DHT22;12611;44.446;26.000;2023-05-15T02:03:11;15.80;71.00
24426;DHT22;12611;44.446;26.000;2023-05-15T02:05:40;15.80;71.10
24426;DHT22;12611;44.446;26.000;2023-05-15T02:08:10;15.80;70.80
24426;DHT22;12611;44.446;26.000;2023-05-15T02:10:39;15.70;70.70
24426;DHT22;12611;44.446;26.000;2023-05-15T02:13:08;15.80;70.80
24426;DHT22;12611;44.446;26.000;2023-05-15T02:15:38;15.70;71.00
24426;DHT22;12611;44.446;26.000;2023-05-15T02:18:06;15.70;70.70
24426;DHT22;12611;44.446;26.000;2023-05-15T02:20:35;15.60;71.00
24426;DHT22;12611;44.446;26.000;2023-05-15T02:23:03;15.70;71.10
24426;DHT22;12611;44.446;26.000;2023-05-15T02:25:37;15.60;70.80
24426;DHT22;12611;44.446;26.000;2023-05-15T02:28:12;15.60;71.20
24426;DHT22;12611;44.446;26.000;2023-05-15T02:30:54;15.50;71.80
24426;DHT22;12611;44.446;26.000;2023-05-15T02:33:28;15.50;72.00
24426;DHT22;12611;44.446;26.000;2023-05-15T02:36:01;15.40;72.50
24426;DHT22;12611;44.446;26.000;2023-05-15T02:38:34;15.40;72.40
24426;DHT22;12611;44.446;26.000;2023-05-15T02:41:05;15.40;72.20
24426;DHT22;12611;44.446;26.000;2023-05-15T02:43:34;15.30;72.60
24426;DHT22;12611;44.446;26.000;2023-05-15T02:46:05;15.40;72.40
24426;DHT22;12611;44.446;26.000;2023-05-15T02:48:34;15.30;72.90
24426;DHT22;12611;44.446;26.000;2023-05-15T02:51:05;15.30;72.90
24426;DHT22;12611;44.446;26.000;2023-05-15T02:53:38;15.20;73.70
24426;DHT22;12611;44.446;26.000;2023-05-15T02:56:07;15.20;73.70
24426;DHT22;12611;44.446;26.000;2023-05-15T02:58:35;15.10;74.20
24426;DHT22;12611;44.446;26.000;2023-05-15T03:01:06;15.10;74.60
24426;DHT22;12611;44.446;26.000;2023-05-15T03:03:34;15.00;75.00
24426;DHT22;12611;44.446;26.000;2023-05-15T03:06:03;15.00;75.10
24426;DHT22;12611;44.446;26.000;2023-05-15T03:08:31;14.90;75.20
24426;DHT22;12611;44.446;26.000;2023-05-15T03:10:59;14.90;75.00
24426;DHT22;12611;44.446;26.000;2023-05-15T03:13:27;14.90;74.50
24426;DHT22;12611;44.446;26.000;2023-05-15T03:15:56;15.00;74.60
24426;DHT22;12611;44.446;26.000;2023-05-15T03:18:25;14.90;74.90
24426;DHT22;12611;44.446;26.000;2023-05-15T03:20:54;14.90;74.90
24426;DHT22;12611;44.446;26.000;2023-05-15T03:23:22;15.00;74.70
24426;DHT22;12611;44.446;26.000;2023-05-15T03:25:50;15.00;74.40
24426;DHT22;12611;44.446;26.000;2023-05-15T03:28:18;15.00;74.50
24426;DHT22;12611;44.446;26.000;2023-05-15T03:30:47;15.00;74.40
24426;DHT22;12611;44.446;26.000;2023-05-15T03:33:15;15.00;74.10
24426;DHT22;12611;44.446;26.000;2023-05-15T03:35:44;15.00;74.60
24426;DHT22;12611;44.446;26.000;2023-05-15T03:38:13;15.00;75.10
24426;DHT22;12611;44.446;26.000;2023-05-15T03:40:41;15.00;75.60
24426;DHT22;12611;44.446;26.000;2023-05-15T03:43:09;15.00;76.10
24426;DHT22;12611;44.446;26.000;2023-05-15T03:45:38;15.00;75.50
24426;DHT22;12611;44.446;26.000;2023-05-15T03:48:06;15.00;75.90
24426;DHT22;12611;44.446;26.000;2023-05-15T03:50:34;15.00;76.20
24426;DHT22;12611;44.446;26.000;2023-05-15T03:53:04;15.00;76.10
24426;DHT22;12611;44.446;26.000;2023-05-15T03:55:33;15.00;76.00
24426;DHT22;12611;44.446;26.000;2023-05-15T03:58:02;15.00;76.20
24426;DHT22;12611;44.446;26.000;2023-05-15T04:00:30;15.00;75.90
24426;DHT22;12611;44.446;26.000;2023-05-15T04:02:59;15.10;75.80
24426;DHT22;12611;44.446;26.000;2023-05-15T04:05:27;15.10;75.30
24426;DHT22;12611;44.446;26.000;2023-05-15T04:07:56;15.20;75.80
24426;DHT22;12611;44.446;26.000;2023-05-15T04:10:25;15.20;75.80
24426;DHT22;12611;44.446;26.000;2023-05-15T04:12:54;15.20;75.60
24426;DHT22;12611;44.446;26.000;2023-05-15T04:15:23;15.30;75.80
24426;DHT22;12611;44.446;26.000;2023-05-15T04:17:53;15.40;75.90
24426;DHT22;12611;44.446;26.000;2023-05-15T04:20:22;15.40;76.30
24426;DHT22;12611;44.446;26.000;2023-05-15T04:22:51;15.40;76.30
24426;DHT22;12611;44.446;26.000;2023-05-15T04:25:20;15.40;76.70
24426;DHT22;12611;44.446;26.000;2023-05-15T04:27:51;15.40;76.80
24426;DHT22;12611;44.446;26.000;2023-05-15T04:30:20;15.50;76.40
24426;DHT22;12611;44.446;26.000;2023-05-15T04:32:48;15.50;76.00
24426;DHT22;12611;44.446;26.000;2023-05-15T04:35:17;15.60;75.90
24426;DHT22;12611;44.446;26.000;2023-05-15T04:37:46;15.70;75.90
24426;DHT22;12611;44.446;26.000;2023-05-15T04:40:14;15.70;75.80
24426;DHT22;12611;44.446;26.000;2023-05-15T04:42:43;15.70;76.00
24426;DHT22;12611;44.446;26.000;2023-05-15T04:45:13;15.70;75.80
24426;DHT22;12611;44.446;26.000;2023-05-15T04:47:41;15.80;75.70
24426;DHT22;12611;44.446;26.000;2023-05-15T04:50:10;15.90;75.50
24426;DHT22;12611;44.446;26.000;2023-05-15T04:52:38;15.90;75.50
24426;DHT22;12611;44.446;26.000;2023-05-15T04:55:07;15.90;75.20
24426;DHT22;12611;44.446;26.000;2023-05-15T04:57:36;15.90;75.20
24426;DHT22;12611;44.446;26.000;2023-05-15T05:00:06;16.00;75.10
24426;DHT22;12611;44.446;26.000;2023-05-15T05:02:39;16.00;75.50
24426;DHT22;12611;44.446;26.000;2023-05-15T05:05:08;15.90;75.40
24426;DHT22;12611;44.446;26.000;2023-05-15T05:07:37;16.00;75.50
24426;DHT22;12611;44.446;26.000;2023-05-15T05:10:06;16.00;76.80
24426;DHT22;12611;44.446;26.000;2023-05-15T05:12:35;15.90;76.40
24426;DHT22;12611;44.446;26.000;2023-05-15T05:15:04;15.90;76.40
24426;DHT22;12611;44.446;26.000;2023-05-15T05:17:33;16.00;76.40
24426;DHT22;12611;44.446;26.000;2023-05-15T05:20:03;16.00;76.30
24426;DHT22;12611;44.446;26.000;2023-05-15T05:22:38;15.90;76.80
24426;DHT22;12611;44.446;26.000;2023-05-15T05:25:08;16.00;76.70
24426;DHT22;12611;44.446;26.000;2023-05-15T05:27:36;16.10;76.40
24426;DHT22;12611;44.446;26.000;2023-05-15T05:30:06;16.10;76.60
24426;DHT22;12611;44.446;26.000;2023-05-15T05:32:35;16.10;76.50
24426;DHT22;12611;44.446;26.000;2023-05-15T05:35:05;16.20;76.60
24426;DHT22;12611;44.446;26.000;2023-05-15T05:37:34;16.30;76.40
24426;DHT22;12611;44.446;26.000;2023-05-15T05:40:06;16.30;76.40
24426;DHT22;12611;44.446;26.000;2023-05-15T05:42:35;16.40;76.40
24426;DHT22;12611;44.446;26.000;2023-05-15T05:45:04;16.50;76.50
24426;DHT22;12611;44.446;26.000;2023-05-15T05:47:33;16.50;76.40
24426;DHT22;12611;44.446;26.000;2023-05-15T05:50:01;16.60;76.40
24426;DHT22;12611;44.446;26.000;2023-05-15T05:52:31;16.60;76.10
24426;DHT22;12611;44.446;26.000;2023-05-15T05:54:59;16.70;76.10
24426;DHT22;12611;44.446;26.000;2023-05-15T05:57:28;16.80;76.00
24426;DHT22;12611;44.446;26.000;2023-05-15T05:59:57;16.80;75.80
24426;DHT22;12611;44.446;26.000;2023-05-15T06:02:25;16.90;75.70
24426;DHT22;12611;44.446;26.000;2023-05-15T06:04:54;16.90;75.60
24426;DHT22;12611;44.446;26.000;2023-05-15T06:07:22;17.00;75.30
24426;DHT22;12611;44.446;26.000;2023-05-15T06:09:51;17.10;75.20
24426;DHT22;12611;44.446;26.000;2023-05-15T06:12:20;17.20;75.40
24426;DHT22;12611;44.446;26.000;2023-05-15T06:14:49;17.20;75.20
24426;DHT22;12611;44.446;26.000;2023-05-15T06:17:17;17.30;75.10
24426;DHT22;12611;44.446;26.000;2023-05-15T06:19:45;17.40;75.10
24426;DHT22;12611;44.446;26.000;2023-05-15T06:22:13;17.50;75.00
24426;DHT22;12611;44.446;26.000;2023-05-15T06:24:42;17.60;75.00
24426;DHT22;12611;44.446;26.000;2023-05-15T06:27:11;17.70;75.10
24426;DHT22;12611;44.446;26.000;2023-05-15T06:29:40;17.80;75.00
24426;DHT22;12611;44.446;26.000;2023-05-15T06:32:08;17.90;74.80
24426;DHT22;12611;44.446;26.000;2023-05-15T06:34:36;18.00;74.60
24426;DHT22;12611;44.446;26.000;2023-05-15T06:37:04;18.00;74.40
24426;DHT22;12611;44.446;26.000;2023-05-15T06:39:33;18.10;74.30
24426;DHT22;12611;44.446;26.000;2023-05-15T06:42:02;18.20;74.60
24426;DHT22;12611;44.446;26.000;2023-05-15T06:44:33;18.30;74.70
24426;DHT22;12611;44.446;26.000;2023-05-15T06:47:01;18.40;74.60
24426;DHT22;12611;44.446;26.000;2023-05-15T06:49:30;18.50;74.20
24426;DHT22;12611;44.446;26.000;2023-05-15T06:51:58;18.60;74.20
24426;DHT22;12611;44.446;26.000;2023-05-15T06:54:26;18.70;74.20
24426;DHT22;12611;44.446;26.000;2023-05-15T06:56:55;18.70;74.10
24426;DHT22;12611;44.446;26.000;2023-05-15T06:59:23;18.80;74.70
24426;DHT22;12611;44.446;26.000;2023-05-15T07:01:53;18.90;73.50
24426;DHT22;12611;44.446;26.000;2023-05-15T07:04:22;19.00;73.60
24426;DHT22;12611;44.446;26.000;2023-05-15T07:06:50;19.10;73.50
24426;DHT22;12611;44.446;26.000;2023-05-15T07:09:18;19.20;73.30
24426;DHT22;12611;44.446;26.000;2023-05-15T07:11:46;19.20;73.20
24426;DHT22;12611;44.446;26.000;2023-05-15T07:14:14;19.30;73.00
24426;DHT22;12611;44.446;26.000;2023-05-15T07:16:43;19.30;72.70
24426;DHT22;12611;44.446;26.000;2023-05-15T07:19:16;19.50;72.90
24426;DHT22;12611;44.446;26.000;2023-05-15T07:21:47;19.50;72.60
24426;DHT22;12611;44.446;26.000;2023-05-15T07:24:15;19.60;73.50
24426;DHT22;12611;44.446;26.000;2023-05-15T07:26:43;19.60;72.60
24426;DHT22;12611;44.446;26.000;2023-05-15T07:29:24;19.70;72.70
24426;DHT22;12611;44.446;26.000;2023-05-15T07:31:52;19.70;72.70
24426;DHT22;12611;44.446;26.000;2023-05-15T07:34:22;19.90;72.40
24426;DHT22;12611;44.446;26.000;2023-05-15T07:36:51;19.90;72.70
24426;DHT22;12611;44.446;26.000;2023-05-15T07:39:19;19.90;72.60
24426;DHT22;12611;44.446;26.000;2023-05-15T07:41:48;20.00;72.40
24426;DHT22;12611;44.446;26.000;2023-05-15T07:44:16;20.00;72.70
24426;DHT22;12611;44.446;26.000;2023-05-15T07:47:00;20.10;72.80
24426;DHT22;12611;44.446;26.000;2023-05-15T07:49:30;20.20;72.50
24426;DHT22;12611;44.446;26.000;2023-05-15T07:52:00;20.20;71.90
24426;DHT22;12611;44.446;26.000;2023-05-15T07:54:28;20.30;72.90
24426;DHT22;12611;44.446;26.000;2023-05-15T07:56:58;20.30;72.30
24426;DHT22;12611;44.446;26.000;2023-05-15T07:59:26;20.40;72.40
24426;DHT22;12611;44.446;26.000;2023-05-15T08:01:54;20.50;72.10
24426;DHT22;12611;44.446;26.000;2023-05-15T08:04:22;20.60;72.10
24426;DHT22;12611;44.446;26.000;2023-05-15T08:06:52;20.70;72.10
24426;DHT22;12611;44.446;26.000;2023-05-15T08:09:20;20.80;71.60
24426;DHT22;12611;44.446;26.000;2023-05-15T08:11:49;20.80;71.30
24426;DHT22;12611;44.446;26.000;2023-05-15T08:14:17;20.80;70.70
24426;DHT22;12611;44.446;26.000;2023-05-15T08:16:45;20.90;70.70
24426;DHT22;12611;44.446;26.000;2023-05-15T08:19:14;21.00;71.10
24426;DHT22;12611;44.446;26.000;2023-05-15T08:21:42;21.10;70.80
24426;DHT22;12611;44.446;26.000;2023-05-15T08:24:12;21.10;70.70
24426;DHT22;12611;44.446;26.000;2023-05-15T08:26:40;21.20;70.50
24426;DHT22;12611;44.446;26.000;2023-05-15T08:29:08;21.30;69.70
24426;DHT22;12611;44.446;26.000;2023-05-15T08:31:37;21.30;69.80
24426;DHT22;12611;44.446;26.000;2023-05-15T08:34:05;21.40;69.90
24426;DHT22;12611;44.446;26.000;2023-05-15T08:36:34;21.50;70.70
24426;DHT22;12611;44.446;26.000;2023-05-15T08:39:04;21.60;69.70
24426;DHT22;12611;44.446;26.000;2023-05-15T08:41:39;21.70;69.70
24426;DHT22;12611;44.446;26.000;2023-05-15T08:44:09;21.80;69.70
24426;DHT22;12611;44.446;26.000;2023-05-15T08:46:39;21.80;69.30
24426;DHT22;12611;44.446;26.000;2023-05-15T08:49:12;21.90;68.60
24426;DHT22;12611;44.446;26.000;2023-05-15T08:51:41;22.00;68.70
24426;DHT22;12611;44.446;26.000;2023-05-15T08:54:10;22.00;67.70
24426;DHT22;12611;44.446;26.000;2023-05-15T08:56:40;22.00;67.60
24426;DHT22;12611;44.446;26.000;2023-05-15T08:59:09;22.10;68.00
24426;DHT22;12611;44.446;26.000;2023-05-15T09:01:37;22.20;68.10
24426;DHT22;12611;44.446;26.000;2023-05-15T09:04:06;22.20;68.00
24426;DHT22;12611;44.446;26.000;2023-05-15T09:06:35;22.30;67.50
24426;DHT22;12611;44.446;26.000;2023-05-15T09:09:04;22.30;67.40
24426;DHT22;12611;44.446;26.000;2023-05-15T09:11:33;22.40;67.60
24426;DHT22;12611;44.446;26.000;2023-05-15T09:14:03;22.50;67.70
24426;DHT22;12611;44.446;26.000;2023-05-15T09:16:33;22.60;67.60
24426;DHT22;12611;44.446;26.000;2023-05-15T09:19:01;22.60;67.20
24426;DHT22;12611;44.446;26.000;2023-05-15T09:21:30;22.70;67.50
24426;DHT22;12611;44.446;26.000;2023-05-15T09:24:17;22.70;67.00
24426;DHT22;12611;44.446;26.000;2023-05-15T09:26:46;22.80;67.10
24426;DHT22;12611;44.446;26.000;2023-05-15T09:29:16;22.80;66.90
24426;DHT22;12611;44.446;26.000;2023-05-15T09:31:45;22.90;66.90
24426;DHT22;12611;44.446;26.000;2023-05-15T09:34:14;22.90;66.80
24426;DHT22;12611;44.446;26.000;2023-05-15T09:36:43;22.90;66.20
24426;DHT22;12611;44.446;26.000;2023-05-15T09:39:11;23.00;66.10
24426;DHT22;12611;44.446;26.000;2023-05-15T09:41:41;23.10;66.20
24426;DHT22;12611;44.446;26.000;2023-05-15T09:44:25;23.10;66.30
24426;DHT22;12611;44.446;26.000;2023-05-15T09:46:54;23.20;66.00
24426;DHT22;12611;44.446;26.000;2023-05-15T09:49:22;23.20;66.00
24426;DHT22;12611;44.446;26.000;2023-05-15T09:51:51;23.30;66.00
24426;DHT22;12611;44.446;26.000;2023-05-15T09:54:22;23.40;66.10
24426;DHT22;12611;44.446;26.000;2023-05-15T09:56:50;23.40;65.80
24426;DHT22;12611;44.446;26.000;2023-05-15T09:59:21;23.40;65.70
24426;DHT22;12611;44.446;26.000;2023-05-15T10:01:50;23.40;64.60
24426;DHT22;12611;44.446;26.000;2023-05-15T10:04:18;23.50;65.10
24426;DHT22;12611;44.446;26.000;2023-05-15T10:06:47;23.50;64.90
24426;DHT22;12611;44.446;26.000;2023-05-15T10:09:29;23.50;64.40
24426;DHT22;12611;44.446;26.000;2023-05-15T10:11:57;23.50;64.30
24426;DHT22;12611;44.446;26.000;2023-05-15T10:14:28;23.60;64.70
24426;DHT22;12611;44.446;26.000;2023-05-15T10:16:57;23.70;64.90
24426;DHT22;12611;44.446;26.000;2023-05-15T10:19:26;23.80;64.70
24426;DHT22;12611;44.446;26.000;2023-05-15T10:21:56;23.80;64.70
24426;DHT22;12611;44.446;26.000;2023-05-15T10:24:29;23.80;64.60
24426;DHT22;12611;44.446;26.000;2023-05-15T10:26:58;23.80;63.80
24426;DHT22;12611;44.446;26.000;2023-05-15T10:29:28;23.90;64.10
24426;DHT22;12611;44.446;26.000;2023-05-15T10:31:58;24.00;64.10
24426;DHT22;12611;44.446;26.000;2023-05-15T10:34:28;24.00;64.00
24426;DHT22;12611;44.446;26.000;2023-05-15T10:36:56;24.10;64.00
24426;DHT22;12611;44.446;26.000;2023-05-15T10:39:28;24.20;64.00
24426;DHT22;12611;44.446;26.000;2023-05-15T10:41:57;24.30;64.00
24426;DHT22;12611;44.446;26.000;2023-05-15T10:44:27;24.30;63.30
24426;DHT22;12611;44.446;26.000;2023-05-15T10:46:55;24.30;63.60
24426;DHT22;12611;44.446;26.000;2023-05-15T10:49:26;24.30;63.90
24426;DHT22;12611;44.446;26.000;2023-05-15T10:51:54;24.40;63.80
24426;DHT22;12611;44.446;26.000;2023-05-15T10:59:05;24.50;63.60
24426;DHT22;12611;44.446;26.000;2023-05-15T11:01:37;24.60;63.40
24426;DHT22;12611;44.446;26.000;2023-05-15T11:04:08;24.70;63.40
24426;DHT22;12611;44.446;26.000;2023-05-15T11:06:38;24.80;63.50
24426;DHT22;12611;44.446;26.000;2023-05-15T11:09:37;24.80;63.30
24426;DHT22;12611;44.446;26.000;2023-05-15T11:12:16;24.90;63.50
24426;DHT22;12611;44.446;26.000;2023-05-15T11:15:19;24.90;62.70
24426;DHT22;12611;44.446;26.000;2023-05-15T11:18:05;25.00;62.00
24426;DHT22;12611;44.446;26.000;2023-05-15T11:20:40;25.00;61.90
24426;DHT22;12611;44.446;26.000;2023-05-15T11:23:08;25.10;61.30
24426;DHT22;12611;44.446;26.000;2023-05-15T11:25:37;25.20;61.50
24426;DHT22;12611;44.446;26.000;2023-05-15T11:28:05;25.20;61.50
24426;DHT22;12611;44.446;26.000;2023-05-15T11:30:35;25.20;61.40
24426;DHT22;12611;44.446;26.000;2023-05-15T11:33:07;25.30;61.60
24426;DHT22;12611;44.446;26.000;2023-05-15T11:35:39;25.40;61.50
24426;DHT22;12611;44.446;26.000;2023-05-15T11:38:13;25.40;61.10
24426;DHT22;12611;44.446;26.000;2023-05-15T11:40:46;25.50;60.70
24426;DHT22;12611;44.446;26.000;2023-05-15T11:43:19;25.50;60.90
24426;DHT22;12611;44.446;26.000;2023-05-15T11:45:50;25.60;61.20
24426;DHT22;12611;44.446;26.000;2023-05-15T11:48:21;25.60;61.00
24426;DHT22;12611;44.446;26.000;2023-05-15T11:50:49;25.70;62.00
24426;DHT22;12611;44.446;26.000;2023-05-15T11:53:19;25.80;60.90
24426;DHT22;12611;44.446;26.000;2023-05-15T11:55:51;25.90;60.00
24426;DHT22;12611;44.446;26.000;2023-05-15T11:58:21;25.90;59.40
24426;DHT22;12611;44.446;26.000;2023-05-15T12:00:51;26.00;59.10
24426;DHT22;12611;44.446;26.000;2023-05-15T12:03:23;26.00;59.20
24426;DHT22;12611;44.446;26.000;2023-05-15T12:05:52;26.10;59.20
24426;DHT22;12611;44.446;26.000;2023-05-15T12:08:29;26.20;58.90
24426;DHT22;12611;44.446;26.000;2023-05-15T12:10:59;26.20;59.00
24426;DHT22;12611;44.446;26.000;2023-05-15T12:13:28;26.30;59.00
24426;DHT22;12611;44.446;26.000;2023-05-15T12:15:57;26.30;59.10
24426;DHT22;12611;44.446;26.000;2023-05-15T12:18:29;26.40;59.40
24426;DHT22;12611;44.446;26.000;2023-05-15T12:21:01;26.40;59.60
24426;DHT22;12611;44.446;26.000;2023-05-15T12:23:31;26.50;59.40
24426;DHT22;12611;44.446;26.000;2023-05-15T12:26:00;26.50;58.60
24426;DHT22;12611;44.446;26.000;2023-05-15T12:28:31;26.60;58.60
24426;DHT22;12611;44.446;26.000;2023-05-15T12:31:00;26.70;58.40
24426;DHT22;12611;44.446;26.000;2023-05-15T12:33:31;26.80;58.40
24426;DHT22;12611;44.446;26.000;2023-05-15T12:35:59;26.70;58.50
24426;DHT22;12611;44.446;26.000;2023-05-15T12:38:28;26.80;58.20
24426;DHT22;12611;44.446;26.000;2023-05-15T12:41:12;26.80;58.20
24426;DHT22;12611;44.446;26.000;2023-05-15T12:43:53;26.80;58.10
24426;DHT22;12611;44.446;26.000;2023-05-15T12:46:22;26.70;57.90
24426;DHT22;12611;44.446;26.000;2023-05-15T12:48:52;26.70;58.30
24426;DHT22;12611;44.446;26.000;2023-05-15T12:51:21;26.60;58.00
24426;DHT22;12611;44.446;26.000;2023-05-15T12:53:51;26.70;58.00
24426;DHT22;12611;44.446;26.000;2023-05-15T12:56:19;26.70;58.10
24426;DHT22;12611;44.446;26.000;2023-05-15T12:58:49;26.80;58.20
24426;DHT22;12611;44.446;26.000;2023-05-15T13:01:20;26.80;58.20
24426;DHT22;12611;44.446;26.000;2023-05-15T13:03:49;26.90;58.20
24426;DHT22;12611;44.446;26.000;2023-05-15T13:06:21;26.90;58.40
24426;DHT22;12611;44.446;26.000;2023-05-15T13:09:04;27.00;58.50
24426;DHT22;12611;44.446;26.000;2023-05-15T13:11:33;27.00;58.40
24426;DHT22;12611;44.446;26.000;2023-05-15T13:14:07;27.00;58.20
24426;DHT22;12611;44.446;26.000;2023-05-15T13:16:36;27.00;58.20
24426;DHT22;12611;44.446;26.000;2023-05-15T13:19:05;27.10;58.20
24426;DHT22;12611;44.446;26.000;2023-05-15T13:21:37;27.00;58.00
24426;DHT22;12611;44.446;26.000;2023-05-15T13:24:05;27.00;58.10
24426;DHT22;12611;44.446;26.000;2023-05-15T13:26:35;26.90;57.60
24426;DHT22;12611;44.446;26.000;2023-05-15T13:29:03;26.80;57.90
24426;DHT22;12611;44.446;26.000;2023-05-15T13:31:32;26.70;58.00
24426;DHT22;12611;44.446;26.000;2023-05-15T13:34:00;26.70;58.10
24426;DHT22;12611;44.446;26.000;2023-05-15T13:36:28;26.60;58.10
24426;DHT22;12611;44.446;26.000;2023-05-15T13:38:58;26.50;58.10
24426;DHT22;12611;44.446;26.000;2023-05-15T13:41:26;26.50;58.10
24426;DHT22;12611;44.446;26.000;2023-05-15T13:43:55;26.50;58.00
24426;DHT22;12611;44.446;26.000;2023-05-15T13:46:23;26.40;58.20
24426;DHT22;12611;44.446;26.000;2023-05-15T13:48:51;26.30;58.00
24426;DHT22;12611;44.446;26.000;2023-05-15T13:51:20;26.30;57.70
24426;DHT22;12611;44.446;26.000;2023-05-15T13:53:49;26.20;57.90
24426;DHT22;12611;44.446;26.000;2023-05-15T13:56:19;26.20;58.10
24426;DHT22;12611;44.446;26.000;2023-05-15T13:58:48;26.00;58.00
24426;DHT22;12611;44.446;26.000;2023-05-15T14:01:16;26.00;58.10
24426;DHT22;12611;44.446;26.000;2023-05-15T14:03:45;25.90;58.00
24426;DHT22;12611;44.446;26.000;2023-05-15T14:06:13;25.90;58.10
24426;DHT22;12611;44.446;26.000;2023-05-15T14:08:41;25.90;58.40
24426;DHT22;12611;44.446;26.000;2023-05-15T14:11:10;25.80;58.80
24426;DHT22;12611;44.446;26.000;2023-05-15T14:13:40;25.80;58.80
24426;DHT22;12611;44.446;26.000;2023-05-15T14:16:12;25.80;59.10
24426;DHT22;12611;44.446;26.000;2023-05-15T14:18:44;25.80;59.10
24426;DHT22;12611;44.446;26.000;2023-05-15T14:21:12;25.70;59.20
24426;DHT22;12611;44.446;26.000;2023-05-15T14:23:40;25.70;59.20
24426;DHT22;12611;44.446;26.000;2023-05-15T14:26:08;25.60;59.20
24426;DHT22;12611;44.446;26.000;2023-05-15T14:28:37;25.60;59.30
24426;DHT22;12611;44.446;26.000;2023-05-15T14:31:06;25.50;59.10
24426;DHT22;12611;44.446;26.000;2023-05-15T14:33:35;25.50;59.10
24426;DHT22;12611;44.446;26.000;2023-05-15T14:36:09;25.50;59.10
24426;DHT22;12611;44.446;26.000;2023-05-15T14:38:38;25.50;58.80
24426;DHT22;12611;44.446;26.000;2023-05-15T14:41:08;25.50;59.10
24426;DHT22;12611;44.446;26.000;2023-05-15T14:43:36;25.50;59.20
24426;DHT22;12611;44.446;26.000;2023-05-15T14:46:06;25.50;59.60
24426;DHT22;12611;44.446;26.000;2023-05-15T14:48:37;25.50;59.40
24426;DHT22;12611;44.446;26.000;2023-05-15T14:51:05;25.50;59.50
24426;DHT22;12611;44.446;26.000;2023-05-15T14:53:34;25.50;59.50
24426;DHT22;12611;44.446;26.000;2023-05-15T14:56:02;25.60;59.50
24426;DHT22;12611;44.446;26.000;2023-05-15T14:58:31;25.60;59.40
24426;DHT22;12611;44.446;26.000;2023-05-15T15:00:59;25.80;59.40
24426;DHT22;12611;44.446;26.000;2023-05-15T15:03:29;25.90;58.90
24426;DHT22;12611;44.446;26.000;2023-05-15T15:05:59;25.90;59.00
24426;DHT22;12611;44.446;26.000;2023-05-15T15:08:28;25.90;58.00
24426;DHT22;12611;44.446;26.000;2023-05-15T15:10:56;25.90;57.60
24426;DHT22;12611;44.446;26.000;2023-05-15T15:13:24;25.90;57.50
24426;DHT22;12611;44.446;26.000;2023-05-15T15:15:55;25.90;57.30
24426;DHT22;12611;44.446;26.000;2023-05-15T15:18:23;25.90;57.10
24426;DHT22;12611;44.446;26.000;2023-05-15T15:20:53;25.90;56.90
24426;DHT22;12611;44.446;26.000;2023-05-15T15:23:22;25.90;57.30
24426;DHT22;12611;44.446;26.000;2023-05-15T15:25:50;26.00;57.30
24426;DHT22;12611;44.446;26.000;2023-05-15T15:28:18;26.00;56.90
24426;DHT22;12611;44.446;26.000;2023-05-15T15:30:46;25.90;55.60
24426;DHT22;12611;44.446;26.000;2023-05-15T15:33:15;25.90;55.60
24426;DHT22;12611;44.446;26.000;2023-05-15T15:35:43;25.90;55.70
24426;DHT22;12611;44.446;26.000;2023-05-15T15:38:12;25.90;55.10